sensor_id;sensor_type;location;lat;lon;timestamp;pressure;altitude;pressure_sealevel;temperature;humidity
64521;BME280;50896;46.714;17.322;2023-03-23T00:01:48;100299.03;;;7.41;100.00
64521;BME280;50896;46.714;17.322;2023-03-23T00:04:16;100298.50;;;7.38;100.00
64521;BME280;50896;46.714;17.322;2023-03-23T00:06:42;100298.50;;;7.38;98.34
64521;BME280;50896;46.714;17.322;2023-03-23T00:09:14;100296.97;;;7.35;97.15
64521;BME280;50896;46.714;17.322;2023-03-23T00:11:41;100300.34;;;7.27;100.00
64521;BME280;50896;46.714;17.322;2023-03-23T00:14:09;100301.31;;;7.26;96.08
64521;BME280;50896;46.714;17.322;2023-03-23T00:16:39;100295.47;;;7.23;98.26
64521;BME280;50896;46.714;17.322;2023-03-23T00:19:09;100295.72;;;7.29;95.96
64521;BME280;50896;46.714;17.322;2023-03-23T00:21:38;100271.16;;;7.09;97.72
64521;BME280;50896;46.714;17.322;2023-03-23T00:24:15;100282.84;;;7.07;98.02
64521;BME280;50896;46.714;17.322;2023-03-23T00:26:44;100290.78;;;7.07;98.42
64521;BME280;50896;46.714;17.322;2023-03-23T00:29:14;100269.25;;;6.92;98.63
64521;BME280;50896;46.714;17.322;2023-03-23T00:31:41;100276.63;;;6.88;98.48
64521;BME280;50896;46.714;17.322;2023-03-23T00:34:14;100260.38;;;6.63;98.28
64521;BME280;50896;46.714;17.322;2023-03-23T00:36:45;100288.84;;;6.79;99.28
64521;BME280;50896;46.714;17.322;2023-03-23T00:39:12;100285.56;;;6.67;99.33
64521;BME280;50896;46.714;17.322;2023-03-23T00:41:39;100284.16;;;6.73;98.72
64521;BME280;50896;46.714;17.322;2023-03-23T00:44:05;100286.09;;;6.71;100.00
64521;BME280;50896;46.714;17.322;2023-03-23T00:46:31;100286.66;;;6.75;100.00
64521;BME280;50896;46.714;17.322;2023-03-23T00:48:56;100277.06;;;6.64;99.35
64521;BME280;50896;46.714;17.322;2023-03-23T00:51:23;100288.88;;;6.70;98.99
64521;BME280;50896;46.714;17.322;2023-03-23T00:53:49;100281.66;;;6.62;98.27
64521;BME280;50896;46.714;17.322;2023-03-23T00:56:16;100278.16;;;6.52;98.77
64521;BME280;50896;46.714;17.322;2023-03-23T00:58:42;100275.94;;;6.47;100.00
64521;BME280;50896;46.714;17.322;2023-03-23T01:01:08;100270.00;;;6.35;99.45
64521;BME280;50896;46.714;17.322;2023-03-23T01:03:34;100265.97;;;6.31;100.00
64521;BME280;50896;46.714;17.322;2023-03-23T01:06:05;100259.13;;;6.28;99.32
64521;BME280;50896;46.714;17.322;2023-03-23T01:08:31;100246.63;;;6.21;100.00
64521;BME280;50896;46.714;17.322;2023-03-23T01:11:05;100242.44;;;6.18;100.00
64521;BME280;50896;46.714;17.322;2023-03-23T01:13:32;100251.22;;;6.19;100.00
64521;BME280;50896;46.714;17.322;2023-03-23T01:15:58;100261.19;;;6.15;100.00
64521;BME280;50896;46.714;17.322;2023-03-23T01:18:24;100249.38;;;6.09;100.00
64521;BME280;50896;46.714;17.322;2023-03-23T01:20:49;100255.63;;;6.08;100.00
64521;BME280;50896;46.714;17.322;2023-03-23T01:23:15;100233.25;;;6.03;100.00
64521;BME280;50896;46.714;17.322;2023-03-23T01:25:41;100246.47;;;6.12;100.00
64521;BME280;50896;46.714;17.322;2023-03-23T01:28:07;100244.69;;;6.13;100.00
64521;BME280;50896;46.714;17.322;2023-03-23T01:30:33;100246.06;;;6.07;100.00
64521;BME280;50896;46.714;17.322;2023-03-23T01:32:58;100254.78;;;5.98;100.00
64521;BME280;50896;46.714;17.322;2023-03-23T01:35:24;100247.81;;;5.97;100.00
64521;BME280;50896;46.714;17.322;2023-03-23T01:37:51;100248.56;;;5.99;100.00
64521;BME280;50896;46.714;17.322;2023-03-23T01:40:17;100247.81;;;5.97;100.00
64521;BME280;50896;46.714;17.322;2023-03-23T01:42:43;100247.59;;;6.00;100.00
64521;BME280;50896;46.714;17.322;2023-03-23T01:48:01;100235.84;;;5.93;100.00
64521;BME280;50896;46.714;17.322;2023-03-23T01:50:34;100241.00;;;5.94;100.00
64521;BME280;50896;46.714;17.322;2023-03-23T01:53:04;100232.50;;;5.81;100.00
64521;BME280;50896;46.714;17.322;2023-03-23T01:55:36;100245.56;;;5.82;100.00
64521;BME280;50896;46.714;17.322;2023-03-23T01:58:04;100242.50;;;5.77;100.00
64521;BME280;50896;46.714;17.322;2023-03-23T02:00:31;100250.97;;;5.71;100.00
64521;BME280;50896;46.714;17.322;2023-03-23T02:03:00;100239.69;;;5.69;100.00
64521;BME280;50896;46.714;17.322;2023-03-23T02:05:52;100239.69;;;5.69;100.00
64521;BME280;50896;46.714;17.322;2023-03-23T02:08:28;100214.41;;;5.57;100.00
64521;BME280;50896;46.714;17.322;2023-03-23T02:10:55;100239.97;;;5.66;100.00
64521;BME280;50896;46.714;17.322;2023-03-23T02:13:21;100226.63;;;5.58;100.00
64521;BME280;50896;46.714;17.322;2023-03-23T02:15:49;100201.19;;;5.37;100.00
64521;BME280;50896;46.714;17.322;2023-03-23T02:18:35;100234.53;;;5.58;100.00
64521;BME280;50896;46.714;17.322;2023-03-23T02:27:03;100231.47;;;5.53;100.00
64521;BME280;50896;46.714;17.322;2023-03-23T02:29:42;100237.28;;;5.46;100.00
64521;BME280;50896;46.714;17.322;2023-03-23T02:34:51;100237.00;;;5.50;100.00
64521;BME280;50896;46.714;17.322;2023-03-23T02:37:32;100216.75;;;5.50;100.00
64521;BME280;50896;46.714;17.322;2023-03-23T02:40:09;100223.28;;;5.56;100.00
64521;BME280;50896;46.714;17.322;2023-03-23T02:42:39;100224.13;;;5.56;100.00
64521;BME280;50896;46.714;17.322;2023-03-23T02:45:10;100228.16;;;5.60;100.00
64521;BME280;50896;46.714;17.322;2023-03-23T02:47:38;100224.66;;;5.50;100.00
64521;BME280;50896;46.714;17.322;2023-03-23T02:50:06;100231.31;;;5.44;100.00
64521;BME280;50896;46.714;17.322;2023-03-23T02:52:36;100231.13;;;5.36;100.00
64521;BME280;50896;46.714;17.322;2023-03-23T02:55:05;100224.59;;;5.30;100.00
64521;BME280;50896;46.714;17.322;2023-03-23T02:57:33;100232.78;;;5.27;100.00
64521;BME280;50896;46.714;17.322;2023-03-23T03:00:01;100231.75;;;5.19;100.00
64521;BME280;50896;46.714;17.322;2023-03-23T03:02:33;100231.22;;;5.25;100.00
64521;BME280;50896;46.714;17.322;2023-03-23T03:07:48;100235.22;;;5.19;100.00
64521;BME280;50896;46.714;17.322;2023-03-23T03:10:25;100218.66;;;5.07;100.00
64521;BME280;50896;46.714;17.322;2023-03-23T03:13:05;100232.16;;;5.14;100.00
64521;BME280;50896;46.714;17.322;2023-03-23T03:15:40;100227.28;;;5.09;100.00
64521;BME280;50896;46.714;17.322;2023-03-23T03:20:44;100233.56;;;5.18;100.00
64521;BME280;50896;46.714;17.322;2023-03-23T03:23:13;100239.78;;;5.17;100.00
64521;BME280;50896;46.714;17.322;2023-03-23T03:25:42;100234.50;;;5.17;100.00
64521;BME280;50896;46.714;17.322;2023-03-23T03:28:18;100209.28;;;4.93;100.00
64521;BME280;50896;46.714;17.322;2023-03-23T03:30:53;100229.34;;;5.06;100.00
64521;BME280;50896;46.714;17.322;2023-03-23T03:33:22;100215.56;;;5.02;100.00
64521;BME280;50896;46.714;17.322;2023-03-23T03:35:55;100226.56;;;5.07;100.00
64521;BME280;50896;46.714;17.322;2023-03-23T03:38:22;100235.06;;;5.11;100.00
64521;BME280;50896;46.714;17.322;2023-03-23T03:40:50;100237.16;;;5.17;100.00
64521;BME280;50896;46.714;17.322;2023-03-23T03:43:16;100227.69;;;5.14;100.00
64521;BME280;50896;46.714;17.322;2023-03-23T03:45:43;100232.16;;;5.14;100.00
64521;BME280;50896;46.714;17.322;2023-03-23T03:48:10;100222.50;;;5.03;100.00
64521;BME280;50896;46.714;17.322;2023-03-23T03:50:37;100222.38;;;5.05;100.00
64521;BME280;50896;46.714;17.322;2023-03-23T03:53:04;100239.78;;;5.17;100.00
64521;BME280;50896;46.714;17.322;2023-03-23T03:55:32;100222.84;;;5.10;100.00
64521;BME280;50896;46.714;17.322;2023-03-23T03:58:02;100237.88;;;5.19;100.00
64521;BME280;50896;46.714;17.322;2023-03-23T04:00:49;100230.59;;;5.11;100.00
64521;BME280;50896;46.714;17.322;2023-03-23T04:03:19;100223.75;;;4.99;100.00
64521;BME280;50896;46.714;17.322;2023-03-23T04:06:03;100246.09;;;5.05;100.00
64521;BME280;50896;46.714;17.322;2023-03-23T04:08:30;100237.38;;;5.04;100.00
64521;BME280;50896;46.714;17.322;2023-03-23T04:10:56;100241.28;;;5.10;100.00
64521;BME280;50896;46.714;17.322;2023-03-23T04:13:23;100243.19;;;5.08;100.00
64521;BME280;50896;46.714;17.322;2023-03-23T04:16:03;100254.72;;;5.07;100.00
64521;BME280;50896;46.714;17.322;2023-03-23T04:18:31;100238.28;;;4.93;100.00
64521;BME280;50896;46.714;17.322;2023-03-23T04:21:01;100255.94;;;5.03;100.00
64521;BME280;50896;46.714;17.322;2023-03-23T04:23:29;100248.47;;;5.08;100.00
64521;BME280;50896;46.714;17.322;2023-03-23T04:25:59;100228.69;;;4.92;100.00
64521;BME280;50896;46.714;17.322;2023-03-23T04:28:31;100230.09;;;4.96;100.00
64521;BME280;50896;46.714;17.322;2023-03-23T04:31:17;100247.31;;;5.01;100.00
64521;BME280;50896;46.714;17.322;2023-03-23T04:33:48;100228.47;;;4.95;100.00
64521;BME280;50896;46.714;17.322;2023-03-23T04:36:15;100244.25;;;4.95;100.00
64521;BME280;50896;46.714;17.322;2023-03-23T04:38:51;100250.63;;;4.93;100.00
64521;BME280;50896;46.714;17.322;2023-03-23T04:41:22;100248.81;;;4.93;100.00
64521;BME280;50896;46.714;17.322;2023-03-23T04:44:06;100253.13;;;4.94;100.00
64521;BME280;50896;46.714;17.322;2023-03-23T04:46:39;100248.00;;;4.93;100.00
64521;BME280;50896;46.714;17.322;2023-03-23T04:49:08;100254.09;;;4.93;100.00
64521;BME280;50896;46.714;17.322;2023-03-23T04:51:37;100250.75;;;4.91;100.00
64521;BME280;50896;46.714;17.322;2023-03-23T04:54:19;100249.72;;;4.83;100.00
64521;BME280;50896;46.714;17.322;2023-03-23T04:56:49;100250.44;;;4.85;100.00
64521;BME280;50896;46.714;17.322;2023-03-23T04:59:15;100231.22;;;4.73;100.00
64521;BME280;50896;46.714;17.322;2023-03-23T05:01:51;100236.88;;;4.68;100.00
64521;BME280;50896;46.714;17.322;2023-03-23T05:04:19;100264.38;;;4.75;100.00
64521;BME280;50896;46.714;17.322;2023-03-23T05:06:56;100250.31;;;4.65;100.00
64521;BME280;50896;46.714;17.322;2023-03-23T05:09:26;100272.41;;;4.74;100.00
64521;BME280;50896;46.714;17.322;2023-03-23T05:11:52;100267.25;;;4.72;100.00
64521;BME280;50896;46.714;17.322;2023-03-23T05:14:17;100282.66;;;4.77;100.00
64521;BME280;50896;46.714;17.322;2023-03-23T05:16:51;100273.94;;;4.76;100.00
64521;BME280;50896;46.714;17.322;2023-03-23T05:19:18;100278.94;;;4.79;100.00
64521;BME280;50896;46.714;17.322;2023-03-23T05:21:45;100286.09;;;4.89;100.00
64521;BME280;50896;46.714;17.322;2023-03-23T05:24:11;100293.09;;;5.00;100.00
64521;BME280;50896;46.714;17.322;2023-03-23T05:26:37;100286.47;;;5.05;100.00
64521;BME280;50896;46.714;17.322;2023-03-23T05:29:09;100294.13;;;5.08;100.00
64521;BME280;50896;46.714;17.322;2023-03-23T05:31:46;100297.78;;;5.17;100.00
64521;BME280;50896;46.714;17.322;2023-03-23T05:34:13;100295.00;;;5.19;100.00
64521;BME280;50896;46.714;17.322;2023-03-23T05:36:46;100279.06;;;5.20;100.00
64521;BME280;50896;46.714;17.322;2023-03-23T05:39:31;100311.09;;;5.46;100.00
64521;BME280;50896;46.714;17.322;2023-03-23T05:42:34;100292.50;;;5.48;100.00
64521;BME280;50896;46.714;17.322;2023-03-23T05:45:09;100310.94;;;5.79;100.00
64521;BME280;50896;46.714;17.322;2023-03-23T05:47:38;100305.56;;;5.80;100.00
64521;BME280;50896;46.714;17.322;2023-03-23T05:50:09;100291.03;;;5.96;100.00
64521;BME280;50896;46.714;17.322;2023-03-23T05:52:35;100296.63;;;6.12;100.00
64521;BME280;50896;46.714;17.322;2023-03-23T05:55:05;100294.28;;;6.19;100.00
64521;BME280;50896;46.714;17.322;2023-03-23T05:57:34;100279.84;;;6.33;100.00
64521;BME280;50896;46.714;17.322;2023-03-23T06:00:04;100298.03;;;6.56;100.00
64521;BME280;50896;46.714;17.322;2023-03-23T06:02:47;100296.25;;;6.76;100.00
64521;BME280;50896;46.714;17.322;2023-03-23T06:05:19;100299.16;;;6.92;100.00
64521;BME280;50896;46.714;17.322;2023-03-23T06:07:49;100305.38;;;7.11;100.00
64521;BME280;50896;46.714;17.322;2023-03-23T06:10:15;100305.34;;;7.30;100.00
64521;BME280;50896;46.714;17.322;2023-03-23T06:12:46;100303.75;;;7.47;100.00
64521;BME280;50896;46.714;17.322;2023-03-23T06:15:11;100296.03;;;7.64;100.00
64521;BME280;50896;46.714;17.322;2023-03-23T06:18:01;100298.19;;;7.78;100.00
64521;BME280;50896;46.714;17.322;2023-03-23T06:20:46;100306.72;;;8.00;96.15
64521;BME280;50896;46.714;17.322;2023-03-23T06:23:32;100297.88;;;8.09;93.90
64521;BME280;50896;46.714;17.322;2023-03-23T06:26:01;100295.84;;;8.21;89.96
64521;BME280;50896;46.714;17.322;2023-03-23T06:28:29;100298.44;;;8.31;89.28
64521;BME280;50896;46.714;17.322;2023-03-23T06:30:55;100305.34;;;8.42;86.57
64521;BME280;50896;46.714;17.322;2023-03-23T06:33:24;100286.41;;;8.36;87.15
64521;BME280;50896;46.714;17.322;2023-03-23T06:36:13;100304.44;;;8.51;89.73
64521;BME280;50896;46.714;17.322;2023-03-23T06:38:50;100298.31;;;8.50;88.75
64521;BME280;50896;46.714;17.322;2023-03-23T06:41:22;100303.06;;;8.65;88.04
64521;BME280;50896;46.714;17.322;2023-03-23T06:43:48;100307.47;;;8.74;87.34
64521;BME280;50896;46.714;17.322;2023-03-23T06:46:17;100298.97;;;8.70;85.87
64521;BME280;50896;46.714;17.322;2023-03-23T06:48:51;100307.06;;;8.87;84.72
64521;BME280;50896;46.714;17.322;2023-03-23T06:51:24;100298.66;;;8.92;84.78
64521;BME280;50896;46.714;17.322;2023-03-23T06:53:52;100304.94;;;9.09;84.02
64521;BME280;50896;46.714;17.322;2023-03-23T06:56:18;100309.81;;;9.21;84.38
64521;BME280;50896;46.714;17.322;2023-03-23T06:58:45;100296.91;;;9.27;82.68
64521;BME280;50896;46.714;17.322;2023-03-23T07:01:11;100299.97;;;9.40;83.36
64521;BME280;50896;46.714;17.322;2023-03-23T07:03:43;100314.88;;;9.67;83.86
64521;BME280;50896;46.714;17.322;2023-03-23T07:06:11;100313.91;;;9.77;82.61
64521;BME280;50896;46.714;17.322;2023-03-23T07:08:45;100318.59;;;9.83;81.56
64521;BME280;50896;46.714;17.322;2023-03-23T07:11:16;100303.03;;;9.88;80.57
64521;BME280;50896;46.714;17.322;2023-03-23T07:13:42;100326.66;;;10.07;79.94
64521;BME280;50896;46.714;17.322;2023-03-23T07:16:08;100318.53;;;10.09;79.11
64521;BME280;50896;46.714;17.322;2023-03-23T07:18:37;100328.31;;;10.08;80.75
64521;BME280;50896;46.714;17.322;2023-03-23T07:21:04;100330.63;;;10.12;82.64
64521;BME280;50896;46.714;17.322;2023-03-23T07:23:31;100333.47;;;10.18;82.30
64521;BME280;50896;46.714;17.322;2023-03-23T07:26:01;100335.09;;;10.46;78.61
64521;BME280;50896;46.714;17.322;2023-03-23T07:28:37;100334.09;;;10.47;78.28
64521;BME280;50896;46.714;17.322;2023-03-23T07:31:35;100323.78;;;10.43;77.65
64521;BME280;50896;46.714;17.322;2023-03-23T07:34:02;100336.09;;;10.61;76.27
64521;BME280;50896;46.714;17.322;2023-03-23T07:36:58;100330.28;;;10.66;76.43
64521;BME280;50896;46.714;17.322;2023-03-23T07:39:27;100313.50;;;10.49;76.53
64521;BME280;50896;46.714;17.322;2023-03-23T07:41:55;100328.91;;;10.45;76.50
64521;BME280;50896;46.714;17.322;2023-03-23T07:44:34;100329.75;;;10.37;76.86
64521;BME280;50896;46.714;17.322;2023-03-23T07:47:05;100334.91;;;10.39;78.26
64521;BME280;50896;46.714;17.322;2023-03-23T07:49:32;100335.72;;;10.39;79.24
64521;BME280;50896;46.714;17.322;2023-03-23T07:52:11;100327.22;;;10.27;78.20
64521;BME280;50896;46.714;17.322;2023-03-23T07:54:36;100323.22;;;10.23;78.12
64521;BME280;50896;46.714;17.322;2023-03-23T07:57:14;100327.50;;;10.16;79.36
64521;BME280;50896;46.714;17.322;2023-03-23T07:59:47;100339.00;;;10.33;77.56
64521;BME280;50896;46.714;17.322;2023-03-23T08:02:13;100338.38;;;10.39;76.92
64521;BME280;50896;46.714;17.322;2023-03-23T08:04:41;100331.84;;;10.34;76.78
64521;BME280;50896;46.714;17.322;2023-03-23T08:07:07;100342.22;;;10.45;77.90
64521;BME280;50896;46.714;17.322;2023-03-23T08:09:52;100342.72;;;10.49;78.45
64521;BME280;50896;46.714;17.322;2023-03-23T08:12:39;100342.41;;;10.60;79.03
64521;BME280;50896;46.714;17.322;2023-03-23T08:15:33;100344.44;;;10.74;78.69
64521;BME280;50896;46.714;17.322;2023-03-23T08:18:17;100345.59;;;10.80;76.92
64521;BME280;50896;46.714;17.322;2023-03-23T08:21:21;100343.09;;;10.87;77.37
64521;BME280;50896;46.714;17.322;2023-03-23T08:24:06;100331.81;;;10.93;78.11
64521;BME280;50896;46.714;17.322;2023-03-23T08:26:47;100332.97;;;11.07;77.38
64521;BME280;50896;46.714;17.322;2023-03-23T08:29:22;100340.94;;;11.15;77.64
64521;BME280;50896;46.714;17.322;2023-03-23T08:32:18;100350.56;;;11.16;78.55
64521;BME280;50896;46.714;17.322;2023-03-23T08:35:07;100341.25;;;11.20;78.12
64521;BME280;50896;46.714;17.322;2023-03-23T08:37:37;100326.94;;;11.29;78.89
64521;BME280;50896;46.714;17.322;2023-03-23T08:40:26;100338.03;;;11.50;78.68
64521;BME280;50896;46.714;17.322;2023-03-23T08:43:16;100321.59;;;11.46;78.87
64521;BME280;50896;46.714;17.322;2023-03-23T08:46:05;100330.03;;;11.50;77.85
64521;BME280;50896;46.714;17.322;2023-03-23T08:48:55;100338.34;;;11.63;76.01
64521;BME280;50896;46.714;17.322;2023-03-23T08:51:46;100334.50;;;11.66;73.66
64521;BME280;50896;46.714;17.322;2023-03-23T08:54:32;100316.88;;;11.65;74.28
64521;BME280;50896;46.714;17.322;2023-03-23T08:57:16;100338.75;;;11.83;74.71
64521;BME280;50896;46.714;17.322;2023-03-23T09:00:06;100316.78;;;11.89;73.95
64521;BME280;50896;46.714;17.322;2023-03-23T09:03:02;100332.22;;;12.02;73.19
64521;BME280;50896;46.714;17.322;2023-03-23T09:05:39;100317.94;;;11.95;74.45
64521;BME280;50896;46.714;17.322;2023-03-23T09:08:22;100333.69;;;12.13;73.18
64521;BME280;50896;46.714;17.322;2023-03-23T09:10:48;100308.34;;;12.17;72.35
64521;BME280;50896;46.714;17.322;2023-03-23T09:13:15;100308.81;;;12.21;73.04
64521;BME280;50896;46.714;17.322;2023-03-23T09:15:41;100303.25;;;12.30;74.02
64521;BME280;50896;46.714;17.322;2023-03-23T09:18:06;100318.69;;;12.43;74.70
64521;BME280;50896;46.714;17.322;2023-03-23T09:20:32;100304.22;;;12.38;73.77
64521;BME280;50896;46.714;17.322;2023-03-23T09:22:58;100308.75;;;12.60;72.70
64521;BME280;50896;46.714;17.322;2023-03-23T09:25:26;100306.31;;;12.51;73.39
64521;BME280;50896;46.714;17.322;2023-03-23T09:27:55;100303.09;;;12.55;73.49
64521;BME280;50896;46.714;17.322;2023-03-23T09:30:24;100301.00;;;12.65;74.39
64521;BME280;50896;46.714;17.322;2023-03-23T09:32:52;100310.50;;;12.68;73.87
64521;BME280;50896;46.714;17.322;2023-03-23T09:35:18;100290.72;;;12.62;71.67
64521;BME280;50896;46.714;17.322;2023-03-23T09:37:48;100285.63;;;12.53;72.96
64521;BME280;50896;46.714;17.322;2023-03-23T09:40:22;100299.13;;;12.74;71.53
64521;BME280;50896;46.714;17.322;2023-03-23T09:43:06;100275.25;;;12.81;70.67
64521;BME280;50896;46.714;17.322;2023-03-23T09:51:24;100278.69;;;13.05;72.44
64521;BME280;50896;46.714;17.322;2023-03-23T09:53:57;100268.75;;;13.13;71.71
64521;BME280;50896;46.714;17.322;2023-03-23T09:56:25;100271.88;;;13.17;70.92
64521;BME280;50896;46.714;17.322;2023-03-23T09:59:00;100256.16;;;13.22;68.17
64521;BME280;50896;46.714;17.322;2023-03-23T10:01:32;100242.41;;;13.25;69.17
64521;BME280;50896;46.714;17.322;2023-03-23T10:04:10;100246.31;;;13.38;68.46
64521;BME280;50896;46.714;17.322;2023-03-23T10:06:39;100237.84;;;13.34;67.73
64521;BME280;50896;46.714;17.322;2023-03-23T10:09:05;100231.97;;;13.54;66.69
64521;BME280;50896;46.714;17.322;2023-03-23T10:19:55;100235.41;;;15.27;57.27
64521;BME280;50896;46.714;17.322;2023-03-23T10:22:29;100228.69;;;15.38;56.68
64521;BME280;50896;46.714;17.322;2023-03-23T10:25:14;100230.59;;;15.51;54.59
64521;BME280;50896;46.714;17.322;2023-03-23T10:28:12;100233.13;;;15.72;53.54
64521;BME280;50896;46.714;17.322;2023-03-23T10:30:49;100230.84;;;15.69;53.30
64521;BME280;50896;46.714;17.322;2023-03-23T10:33:24;100230.84;;;15.69;53.90
64521;BME280;50896;46.714;17.322;2023-03-23T10:36:03;100228.81;;;15.71;55.45
64521;BME280;50896;46.714;17.322;2023-03-23T10:38:41;100214.06;;;15.47;56.49
64521;BME280;50896;46.714;17.322;2023-03-23T10:41:18;100212.88;;;15.57;60.18
64521;BME280;50896;46.714;17.322;2023-03-23T10:43:45;100190.22;;;15.59;57.01
64521;BME280;50896;46.714;17.322;2023-03-23T10:49:06;100205.88;;;16.37;50.74
64521;BME280;50896;46.714;17.322;2023-03-23T10:51:39;100199.50;;;16.65;50.22
64521;BME280;50896;46.714;17.322;2023-03-23T10:54:07;100196.59;;;16.67;52.07
64521;BME280;50896;46.714;17.322;2023-03-23T10:59:18;100193.25;;;17.05;49.64
64521;BME280;50896;46.714;17.322;2023-03-23T11:01:50;100195.31;;;17.10;48.40
64521;BME280;50896;46.714;17.322;2023-03-23T11:04:18;100180.84;;;17.11;48.16
64521;BME280;50896;46.714;17.322;2023-03-23T11:07:03;100194.69;;;17.14;49.16
64521;BME280;50896;46.714;17.322;2023-03-23T11:09:37;100197.94;;;17.36;49.15
64521;BME280;50896;46.714;17.322;2023-03-23T11:12:04;100173.50;;;17.45;47.85
64521;BME280;50896;46.714;17.322;2023-03-23T11:14:33;100185.44;;;17.55;49.31
64521;BME280;50896;46.714;17.322;2023-03-23T11:17:02;100176.72;;;17.67;48.43
64521;BME280;50896;46.714;17.322;2023-03-23T11:19:36;100171.56;;;17.97;48.04
64521;BME280;50896;46.714;17.322;2023-03-23T11:24:33;100171.25;;;18.19;46.25
64521;BME280;50896;46.714;17.322;2023-03-23T11:27:00;100177.44;;;18.44;45.40
64521;BME280;50896;46.714;17.322;2023-03-23T11:29:29;100172.44;;;18.48;45.88
64521;BME280;50896;46.714;17.322;2023-03-23T11:34:31;100174.16;;;18.86;43.97
64521;BME280;50896;46.714;17.322;2023-03-23T11:37:05;100150.03;;;18.98;43.38
64521;BME280;50896;46.714;17.322;2023-03-23T11:39:56;100170.19;;;19.33;43.13
64521;BME280;50896;46.714;17.322;2023-03-23T11:42:36;100138.56;;;19.40;43.21
64521;BME280;50896;46.714;17.322;2023-03-23T11:45:31;100160.22;;;19.82;41.78
64521;BME280;50896;46.714;17.322;2023-03-23T11:48:12;100157.09;;;19.97;40.54
64521;BME280;50896;46.714;17.322;2023-03-23T11:50:59;100146.44;;;20.26;40.18
64521;BME280;50896;46.714;17.322;2023-03-23T11:58:36;100141.22;;;22.74;35.55
64521;BME280;50896;46.714;17.322;2023-03-23T12:01:13;100135.50;;;22.53;36.13
64521;BME280;50896;46.714;17.322;2023-03-23T12:06:14;100121.84;;;21.63;37.49
64521;BME280;50896;46.714;17.322;2023-03-23T12:08:53;100134.97;;;20.90;38.69
64521;BME280;50896;46.714;17.322;2023-03-23T12:14:16;100128.59;;;19.71;41.86
64521;BME280;50896;46.714;17.322;2023-03-23T12:19:25;100126.16;;;19.02;44.19
64521;BME280;50896;46.714;17.322;2023-03-23T12:49:00;100098.75;;;18.49;45.07
64521;BME280;50896;46.714;17.322;2023-03-23T12:51:38;100098.19;;;18.40;46.09
64521;BME280;50896;46.714;17.322;2023-03-23T12:54:24;100090.19;;;18.34;46.29
64521;BME280;50896;46.714;17.322;2023-03-23T12:57:31;100097.84;;;18.55;45.59
64521;BME280;50896;46.714;17.322;2023-03-23T13:00:21;100089.47;;;18.82;44.30
64521;BME280;50896;46.714;17.322;2023-03-23T13:08:15;100072.97;;;18.97;43.81
64521;BME280;50896;46.714;17.322;2023-03-23T13:10:45;100069.38;;;18.66;45.31
64521;BME280;50896;46.714;17.322;2023-03-23T13:13:18;100060.66;;;18.45;45.90
64521;BME280;50896;46.714;17.322;2023-03-23T13:18:24;100066.22;;;18.51;45.14
64521;BME280;50896;46.714;17.322;2023-03-23T13:23:37;100073.59;;;18.99;44.05
64521;BME280;50896;46.714;17.322;2023-03-23T13:26:17;100062.19;;;18.97;44.56
64521;BME280;50896;46.714;17.322;2023-03-23T13:31:31;100079.41;;;18.96;44.51
64521;BME280;50896;46.714;17.322;2023-03-23T13:36:39;100068.94;;;18.88;45.31
64521;BME280;50896;46.714;17.322;2023-03-23T13:39:18;100055.69;;;18.68;46.30
64521;BME280;50896;46.714;17.322;2023-03-23T13:42:34;100074.44;;;18.74;46.04
64521;BME280;50896;46.714;17.322;2023-03-23T13:47:40;100067.88;;;18.52;45.92
64521;BME280;50896;46.714;17.322;2023-03-23T13:50:13;100071.28;;;18.40;46.61
64521;BME280;50896;46.714;17.322;2023-03-23T13:53:11;100056.56;;;18.43;46.80
64521;BME280;50896;46.714;17.322;2023-03-23T13:55:47;100063.53;;;18.51;46.30
64521;BME280;50896;46.714;17.322;2023-03-23T13:58:26;100070.13;;;18.55;46.80
64521;BME280;50896;46.714;17.322;2023-03-23T14:01:15;100069.72;;;18.51;46.42
64521;BME280;50896;46.714;17.322;2023-03-23T14:03:48;100068.16;;;18.62;46.63
64521;BME280;50896;46.714;17.322;2023-03-23T14:06:20;100068.75;;;18.64;45.47
64521;BME280;50896;46.714;17.322;2023-03-23T14:09:26;100067.25;;;18.50;47.46
64521;BME280;50896;46.714;17.322;2023-03-23T14:12:02;100069.72;;;18.70;43.77
64521;BME280;50896;46.714;17.322;2023-03-23T14:17:28;100060.59;;;18.71;43.22
64521;BME280;50896;46.714;17.322;2023-03-23T14:19:57;100044.91;;;18.68;43.67
64521;BME280;50896;46.714;17.322;2023-03-23T14:22:36;100055.38;;;18.94;42.73
64521;BME280;50896;46.714;17.322;2023-03-23T14:25:15;100050.16;;;19.00;41.59
64521;BME280;50896;46.714;17.322;2023-03-23T14:27:42;100045.22;;;18.97;42.77
64521;BME280;50896;46.714;17.322;2023-03-23T14:30:14;100038.56;;;18.99;41.42
64521;BME280;50896;46.714;17.322;2023-03-23T14:32:41;100030.16;;;19.07;42.21
64521;BME280;50896;46.714;17.322;2023-03-23T14:35:13;100019.84;;;19.04;41.62
64521;BME280;50896;46.714;17.322;2023-03-23T14:37:40;100028.53;;;19.06;41.67
64521;BME280;50896;46.714;17.322;2023-03-23T14:40:13;100026.38;;;18.97;42.45
64521;BME280;50896;46.714;17.322;2023-03-23T14:42:40;100025.75;;;18.76;43.29
64521;BME280;50896;46.714;17.322;2023-03-23T14:45:07;100011.47;;;18.57;42.58
64521;BME280;50896;46.714;17.322;2023-03-23T14:47:40;100022.69;;;18.54;43.34
64521;BME280;50896;46.714;17.322;2023-03-23T14:52:57;100034.88;;;18.38;44.28
64521;BME280;50896;46.714;17.322;2023-03-23T14:55:23;100021.84;;;18.35;44.01
64521;BME280;50896;46.714;17.322;2023-03-23T14:57:51;100018.41;;;18.27;43.70